Time;durP1;ratioP1;P1;durP2;ratioP2;P2;SDS_P1;SDS_P2;PMS_P1;PMS_P2;Temp;Humidity;BMP_temperature;BMP_pressure;BME280_temperature;BME280_humidity;BME280_pressure;Samples;Min_cycle;Max_cycle;Signal;HPM_P1;HPM_P2
2021/12/30 00:04:55;;;;;;;95.20;68.00;;;;;;;4.18;79.90;99936.38;110148;1284;21951;-86
2021/12/30 00:07:41;;;;;;;93.20;69.10;;;;;;;4.16;79.94;99935.38;109961;1288;21905;-85
2021/12/30 00:11:15;;;;;;;;;;;;;;;;;;;;;
2021/12/30 00:14:50;;;;;;;;;;;;;;;;;;;;;
2021/12/30 00:22:23;;;;;;;;;;;;;;;;;;;;;
2021/12/30 00:33:32;;;;;;;;;;;;;;;;;;;;;
2021/12/30 00:36:26;;;;;;;113.30;76.90;;;;;;;4.02;80.58;99933.11;109698;1288;348989;-85
2021/12/30 00:39:02;;;;;;;101.80;73.30;;;;;;;4.06;80.48;99937.46;109861;1288;21923;-85
2021/12/30 00:41:35;;;;;;;93.30;70.50;;;;;;;4.10;80.62;99936.04;109343;1295;22427;-84
2021/12/30 00:44:07;;;;;;;81.50;58.80;;;;;;;4.15;80.57;99934.73;109362;1294;22355;-84
2021/12/30 00:46:58;;;;;;;;;;;;;;;;;;;;;
2021/12/30 00:49:43;;;;;;;98.20;70.30;;;;;;;4.12;80.32;99928.02;109906;1289;21925;-85
2021/12/30 00:52:27;;;;;;;;;;;;;;;;;;;;;
2021/12/30 00:58:52;;;;;;;98.90;71.00;;;;;;;4.18;80.31;99935.71;110037;1286;21913;-87
2021/12/30 01:02:43;;;;;;;107.90;72.30;;;;;;;4.16;80.46;99946.46;109894;1291;21961;-85
2021/12/30 01:05:19;;;;;;;;;;;;;;;4.13;80.27;99948.70;109853;1291;21945;-85
2021/12/30 01:08:04;;;;;;;;;;;;;;;;;;;;;
2021/12/30 01:10:46;;;;;;;92.40;66.80;;;;;;;4.06;80.59;99943.38;108708;1301;21910;-85
2021/12/30 01:13:50;;;;;;;98.90;71.60;;;;;;;4.07;80.40;99948.90;108406;1301;21916;-86
2021/12/30 01:16:45;;;;;;;109.30;83.80;;;;;;;4.07;80.45;99954.08;108666;1301;22099;-85
2021/12/30 01:21:57;;;;;;;111.30;84.90;;;;;;;4.11;80.43;99952.29;108517;1301;22525;-83
2021/12/30 01:24:39;;;;;;;96.10;77.00;;;;;;;4.14;80.50;99949.77;108593;1301;22246;-83
2021/12/30 01:27:12;;;;;;;97.50;73.60;;;;;;;4.17;80.51;99946.19;109057;1297;22165;-84
2021/12/30 01:29:49;;;;;;;90.40;68.90;;;;;;;4.22;80.45;99950.33;108942;1297;21957;-84
2021/12/30 01:32:21;;;;;;;91.30;69.30;;;;;;;4.23;80.49;99951.26;108987;1294;21979;-83
2021/12/30 01:34:57;;;;;;;93.90;68.80;;;;;;;4.24;80.39;99946.83;109174;1292;21884;-85
2021/12/30 01:37:27;;;;;;;92.40;67.30;;;;;;;4.24;80.23;99955.73;109514;1293;21919;-85
2021/12/30 01:40:16;;;;;;;;;;;;;;;;;;;;;
2021/12/30 01:43:01;;;;;;;89.60;66.20;;;;;;;4.25;80.00;99956.63;109019;1298;21903;-85
2021/12/30 01:45:50;;;;;;;99.50;70.00;;;;;;;4.19;79.82;99949.50;108735;1298;21913;-85
2021/12/30 01:48:26;;;;;;;96.00;70.90;;;;;;;4.15;79.73;99943.61;108608;1298;21964;-85
2021/12/30 01:51:04;;;;;;;105.70;77.10;;;;;;;4.07;79.75;99950.44;108777;1298;21916;-85
2021/12/30 01:53:37;;;;;;;103.40;75.50;;;;;;;4.04;79.89;99951.02;108817;1298;21987;-85
2021/12/30 01:56:16;;;;;;;106.70;74.60;;;;;;;4.00;79.87;99953.63;109564;1294;21899;-85
2021/12/30 01:58:49;;;;;;;99.50;71.80;;;;;;;3.95;79.91;99954.48;109537;1294;21993;-85
2021/12/30 02:01:19;;;;;;;96.30;71.50;;;;;;;3.91;80.10;99953.96;109428;1288;22384;-84
2021/12/30 02:03:56;;;;;;;101.80;74.90;;;;;;;3.89;80.17;99967.21;109750;1292;22010;-84
2021/12/30 02:06:34;;;;;;;103.70;74.70;;;;;;;3.84;80.15;99970.90;109737;1292;21938;-83
2021/12/30 02:09:20;;;;;;;;;;;;;;;;;;;;;
2021/12/30 02:12:23;;;;;;;;;;;;;;;3.89;80.27;99973.80;109806;1292;22006;-86
2021/12/30 02:20:04;;;;;;;;;;;;;;;;;;;;;
2021/12/30 02:23:03;;;;;;;118.50;85.30;;;;;;;3.85;80.55;99984.61;109917;1286;22372;-83
2021/12/30 02:25:41;;;;;;;105.70;79.10;;;;;;;3.91;80.61;99992.46;109927;1285;21926;-82
2021/12/30 02:28:15;;;;;;;105.70;77.50;;;;;;;3.91;80.74;99982.98;109954;1285;22193;-83
2021/12/30 02:30:50;;;;;;;108.20;76.10;;;;;;;3.98;80.49;99987.29;109948;1285;21960;-83
2021/12/30 02:33:26;;;;;;;100.40;72.70;;;;;;;3.97;80.31;99978.83;109970;1283;21915;-83
2021/12/30 02:35:56;;;;;;;104.00;74.10;;;;;;;3.93;80.29;99980.24;109466;1294;21961;-83
2021/12/30 02:38:27;;;;;;;101.50;76.50;;;;;;;3.89;80.50;99982.20;109773;1291;21980;-83
2021/12/30 02:41:04;;;;;;;105.80;77.70;;;;;;;3.89;80.53;99984.75;109064;1297;21911;-84
2021/12/30 02:43:36;;;;;;;93.00;69.20;;;;;;;3.90;80.59;99987.99;108930;1298;22072;-84
2021/12/30 02:46:28;;;;;;;104.10;79.70;;;;;;;3.92;80.58;99990.30;109254;1297;21908;-84
2021/12/30 02:49:05;;;;;;;102.30;73.70;;;;;;;3.93;80.62;99995.91;108592;1300;22539;-84
2021/12/30 02:51:58;;;;;;;104.20;74.50;;;;;;;3.98;80.73;99993.23;108256;1307;22001;-85
2021/12/30 02:54:30;;;;;;;92.50;70.00;;;;;;;4.03;80.73;99992.80;108371;1301;22403;-84
2021/12/30 02:57:10;;;;;;;;;;;;;;;;;;;;;
2021/12/30 02:59:49;;;;;;;103.10;75.70;;;;;;;4.06;80.30;100009.77;108080;1298;21945;-84
2021/12/30 03:02:23;;;;;;;;;;;;;;;4.04;80.48;100005.95;109044;1298;21962;-84
2021/12/30 03:04:52;;;;;;;90.20;66.80;;;;;;;4.01;80.62;100012.10;108544;1301;21957;-83
2021/12/30 03:07:22;;;;;;;90.70;69.10;;;;;;;4.05;80.65;100011.80;108869;1298;21927;-82
2021/12/30 03:09:53;;;;;;;84.10;68.40;;;;;;;4.10;80.67;100010.77;108484;1300;21824;-83
2021/12/30 03:12:22;;;;;;;82.40;66.20;;;;;;;4.16;80.71;100002.77;108500;1301;21863;-83
2021/12/30 03:14:57;;;;;;;85.60;67.40;;;;;;;4.20;80.61;100003.30;108638;1301;21861;-83
2021/12/30 03:17:38;;;;;;;79.20;64.80;;;;;;;4.20;80.36;100007.61;108592;1301;21987;-84
2021/12/30 03:20:09;;;;;;;78.30;63.70;;;;;;;4.18;80.29;100011.98;108869;1300;21934;-82
2021/12/30 03:22:45;;;;;;;78.00;67.00;;;;;;;4.15;80.20;100017.16;108367;1304;21886;-83
2021/12/30 03:25:17;;;;;;;86.90;71.40;;;;;;;4.10;80.38;100007.70;107683;1304;21914;-78
2021/12/30 03:27:47;;;;;;;76.40;63.40;;;;;;;4.06;80.21;100008.06;108003;1307;21974;-78
2021/12/30 03:30:17;;;;;;;69.80;60.10;;;;;;;3.99;80.34;100007.41;107817;1308;21832;-78
2021/12/30 03:32:47;;;;;;;74.90;62.90;;;;;;;3.95;80.34;100009.36;107308;1312;22358;-78
2021/12/30 03:35:21;;;;;;;73.50;62.60;;;;;;;3.93;80.40;100019.95;107318;1312;22013;-77
2021/12/30 03:37:55;;;;;;;72.80;59.10;;;;;;;3.92;80.39;100021.77;107362;1315;21923;-83
2021/12/30 03:40:27;;;;;;;71.70;59.60;;;;;;;3.92;80.35;100018.27;107280;1315;22334;-83
2021/12/30 03:42:57;;;;;;;73.60;61.10;;;;;;;3.88;80.39;100018.30;107334;1315;22423;-82
2021/12/30 03:45:27;;;;;;;79.10;66.50;;;;;;;3.84;80.42;100011.71;107377;1311;21918;-82
2021/12/30 03:48:01;;;;;;;80.50;62.70;;;;;;;3.82;80.55;100018.35;107511;1309;21790;-82
2021/12/30 03:50:42;;;;;;;74.10;61.80;;;;;;;3.80;80.64;100020.37;107504;1307;21994;-83
2021/12/30 03:53:19;;;;;;;77.40;62.60;;;;;;;3.82;80.72;100029.98;107635;1306;21950;-82
2021/12/30 03:55:51;;;;;;;76.60;64.70;;;;;;;3.85;80.79;100036.69;108185;1301;21902;-83
2021/12/30 03:58:29;;;;;;;72.50;58.90;;;;;;;3.90;80.84;100027.91;108232;1299;21900;-83
2021/12/30 04:01:02;;;;;;;72.90;62.90;;;;;;;3.94;80.78;100026.85;108534;1300;21879;-83
2021/12/30 04:03:37;;;;;;;69.80;61.50;;;;;;;4.00;80.89;100030.12;108357;1301;21989;-83
2021/12/30 04:06:10;;;;;;;;;;;;;;;4.03;80.51;100025.71;108565;1301;22419;-82
2021/12/30 04:08:40;;;;;;;81.80;68.80;;;;;;;3.98;80.78;100030.83;108968;1295;22002;-83
2021/12/30 04:11:10;;;;;;;75.20;64.40;;;;;;;4.00;80.67;100028.97;109568;1289;21909;-84
2021/12/30 04:13:41;;;;;;;73.30;60.80;;;;;;;4.01;80.51;100030.08;109805;1286;21955;-83
2021/12/30 04:16:13;;;;;;;73.10;61.10;;;;;;;4.00;80.42;100024.61;109956;1285;21896;-82
2021/12/30 04:18:48;;;;;;;68.60;59.70;;;;;;;3.99;80.59;100017.52;109992;1286;21878;-82
2021/12/30 04:21:22;;;;;;;73.10;61.50;;;;;;;4.03;80.48;100020.85;109930;1286;21921;-82
2021/12/30 04:23:52;;;;;;;72.80;60.70;;;;;;;4.01;80.49;100018.91;109943;1286;21927;-82
2021/12/30 04:26:32;;;;;;;76.60;61.80;;;;;;;4.02;80.46;100010.60;109809;1289;21895;-83
2021/12/30 04:29:05;;;;;;;72.60;60.80;;;;;;;4.04;80.47;100014.48;109014;1298;22004;-82
2021/12/30 04:31:40;;;;;;;70.00;59.20;;;;;;;4.06;80.54;100013.77;109118;1297;21858;-82
2021/12/30 04:34:13;;;;;;;65.00;56.60;;;;;;;4.12;80.83;100023.02;109112;1295;21898;-85
2021/12/30 04:36:45;;;;;;;68.90;59.10;;;;;;;4.15;80.76;100030.59;109364;1295;21999;-83
2021/12/30 04:39:14;;;;;;;61.10;53.40;;;;;;;4.21;80.67;100043.30;109324;1295;22072;-83
2021/12/30 04:41:47;;;;;;;57.90;49.60;;;;;;;4.27;80.60;100048.02;108535;1301;21868;-83
2021/12/30 04:44:30;;;;;;;57.70;48.80;;;;;;;4.30;80.48;100041.48;108729;1300;21886;-83
2021/12/30 04:47:01;;;;;;;52.90;45.00;;;;;;;4.32;80.52;100040.77;109059;1292;21939;-83
2021/12/30 04:49:34;;;;;;;55.60;45.30;;;;;;;4.35;80.64;100026.58;109660;1292;21909;-83
2021/12/30 04:52:07;;;;;;;60.30;50.50;;;;;;;4.42;80.64;100026.98;109727;1291;22472;-84
2021/12/30 04:55:02;;;;;;;70.10;56.30;;;;;;;4.43;80.38;100030.20;109513;1292;22352;-84
2021/12/30 04:57:35;;;;;;;77.30;61.50;;;;;;;4.44;80.35;100041.99;109791;1291;22005;-84
2021/12/30 05:00:57;;;;;;;66.90;55.20;;;;;;;4.47;80.47;100046.42;109841;1288;21910;-85
2021/12/30 05:03:41;;;;;;;60.90;51.50;;;;;;;4.49;80.48;100042.61;109999;1286;21822;-85
2021/12/30 05:06:15;;;;;;;64.10;52.60;;;;;;;4.51;80.38;100048.85;109992;1286;21878;-84
2021/12/30 05:08:48;;;;;;;59.90;51.60;;;;;;;4.52;80.30;100050.55;109956;1286;22007;-83
2021/12/30 05:11:19;;;;;;;54.10;46.20;;;;;;;4.52;80.37;100060.08;109972;1285;22089;-84
2021/12/30 05:13:49;;;;;;;53.10;46.10;;;;;;;4.57;80.44;100063.35;109935;1285;21975;-84
2021/12/30 05:16:21;;;;;;;79.90;58.30;;;;;;;4.62;80.26;100062.21;109943;1286;22361;-85
2021/12/30 05:18:57;;;;;;;60.20;48.50;;;;;;;4.64;80.15;100057.84;109734;1291;22408;-84
2021/12/30 05:21:29;;;;;;;60.90;48.10;;;;;;;4.65;80.15;100060.13;109634;1292;21932;-84
2021/12/30 05:24:01;;;;;;;51.90;44.00;;;;;;;4.68;80.21;100061.96;109473;1292;21840;-84
2021/12/30 05:26:34;;;;;;;75.00;51.80;;;;;;;4.69;80.07;100067.35;108838;1298;22005;-85
2021/12/30 05:29:06;;;;;;;76.80;61.70;;;;;;;4.69;79.94;100068.34;108901;1298;21910;-84
2021/12/30 05:31:46;;;;;;;59.20;51.90;;;;;;;4.70;79.86;100071.73;108889;1298;21927;-83
2021/12/30 05:34:16;;;;;;;54.20;45.50;;;;;;;4.69;79.77;100070.26;108223;1303;21942;-82
2021/12/30 05:36:47;;;;;;;206.90;187.30;;;;;;;4.69;79.75;100073.61;108766;1298;21875;-84
2021/12/30 05:39:17;;;;;;;149.50;133.30;;;;;;;4.67;79.67;100074.63;108927;1298;21966;-83
2021/12/30 05:41:49;;;;;;;683.10;550.80;;;;;;;4.64;79.64;100067.36;108926;1298;21898;-84
2021/12/30 05:44:47;;;;;;;283.90;218.70;;;;;;;4.59;79.60;100067.63;109031;1294;21884;-83
2021/12/30 05:47:19;;;;;;;232.30;180.60;;;;;;;4.57;79.53;100065.05;109057;1298;21802;-83
2021/12/30 05:49:52;;;;;;;231.90;186.00;;;;;;;4.54;79.41;100067.82;108855;1298;21866;-84
2021/12/30 05:53:04;;;;;;;181.70;163.30;;;;;;;4.53;79.48;100067.02;109176;1291;22271;-86
2021/12/30 05:55:36;;;;;;;95.70;86.20;;;;;;;4.48;79.49;100061.34;109721;1292;21933;-83
2021/12/30 05:58:38;;;;;;;122.30;110.90;;;;;;;4.43;79.45;100057.71;109557;1294;21904;-85
2021/12/30 06:01:39;;;;;;;87.10;76.70;;;;;;;4.32;79.23;100055.25;110161;1285;21904;-85
2021/12/30 06:04:44;;;;;;;;;;;;;;;;;;;;;
2021/12/30 06:08:20;;;;;;;85.20;72.00;;;;;;;4.06;79.22;100072.11;110037;1279;21908;-89
2021/12/30 06:11:46;;;;;;;87.20;77.90;;;;;;;3.94;79.42;100059.27;110067;1284;21948;-86
2021/12/30 06:18:35;;;;;;;78.90;69.60;;;;;;;3.72;79.54;100066.15;109937;1287;21957;-87
2021/12/30 06:21:44;;;;;;;86.40;75.10;;;;;;;3.63;79.78;100079.30;109992;1286;22334;-86
2021/12/30 06:35:12;;;;;;;;;;;;;;;;;;;;;
2021/12/30 06:38:10;;;;;;;99.20;88.30;;;;;;;3.45;80.07;100088.70;110058;1281;21974;-84
2021/12/30 06:43:58;;;;;;;105.60;93.50;;;;;;;3.37;80.16;100081.82;110062;1286;21910;-79
2021/12/30 06:46:29;;;;;;;113.20;97.60;;;;;;;3.38;80.38;100090.45;109989;1285;21927;-81
2021/12/30 06:49:00;;;;;;;107.60;94.30;;;;;;;3.39;80.43;100097.73;109957;1285;21887;-84
2021/12/30 06:51:35;;;;;;;105.70;93.60;;;;;;;3.44;80.44;100111.01;109990;1285;21902;-80
2021/12/30 06:54:08;;;;;;;106.40;94.80;;;;;;;3.49;80.46;100112.23;109770;1292;21975;-85
2021/12/30 07:00:21;;;;;;;;;;;;;;;;;;;;;
2021/12/30 07:03:32;;;;;;;95.10;84.80;;;;;;;3.48;80.36;100109.63;110024;1286;22401;-86
2021/12/30 07:07:27;;;;;;;;;;;;;;;;;;;;;
2021/12/30 07:17:37;;;;;;;;;;;;;;;;;;;;;
2021/12/30 07:27:06;;;;;;;88.40;76.70;;;;;;;3.55;80.80;100119.70;110093;1285;21904;-84
2021/12/30 07:30:45;;;;;;;;;;;;;;;;;;;;;
2021/12/30 07:34:36;;;;;;;;;;;;;;;;;;;;;
2021/12/30 07:44:09;;;;;;;209.10;172.20;;;;;;;3.74;80.80;100127.16;109967;1284;21930;-84
2021/12/30 07:57:57;;;;;;;116.90;91.70;;;;;;;3.88;81.02;100143.44;110189;1284;21987;-86
2021/12/30 08:01:48;;;;;;;;;;;;;;;;;;;;;
2021/12/30 08:05:06;;;;;;;105.70;83.20;;;;;;;4.01;80.88;100149.74;109979;1287;22227;-87
2021/12/30 08:07:46;;;;;;;87.40;71.80;;;;;;;4.10;81.02;100151.60;109900;1291;21927;-83
2021/12/30 08:10:28;;;;;;;96.60;77.30;;;;;;;4.14;80.63;100149.55;109852;1291;21976;-83
2021/12/30 08:13:10;;;;;;;89.60;75.20;;;;;;;4.14;80.51;100147.99;109749;1291;21994;-80
2021/12/30 08:15:43;;;;;;;78.40;66.20;;;;;;;4.14;80.51;100147.27;109826;1291;22022;-83
2021/12/30 08:18:20;;;;;;;79.40;67.80;;;;;;;4.12;80.14;100145.38;109853;1291;21954;-80
2021/12/30 08:20:53;;;;;;;86.40;70.10;;;;;;;4.09;80.25;100145.23;109755;1291;22097;-79
2021/12/30 08:23:30;;;;;;;100.50;80.20;;;;;;;4.05;80.16;100146.95;109835;1291;21857;-85
2021/12/30 08:25:59;;;;;;;109.00;87.10;;;;;;;4.01;80.14;100148.55;109901;1288;22332;-78
2021/12/30 08:28:30;;;;;;;96.30;78.60;;;;;;;4.03;80.22;100154.32;109945;1288;21884;-85
2021/12/30 08:31:04;;;;;;;88.40;75.70;;;;;;;4.04;80.25;100163.17;109593;1291;21988;-81
2021/12/30 08:33:52;;;;;;;86.70;74.60;;;;;;;4.02;80.33;100167.30;109756;1291;22059;-86
2021/12/30 08:36:51;;;;;;;89.20;77.50;;;;;;;4.06;80.52;100165.42;107940;1291;2560357;-86
2021/12/30 08:39:34;;;;;;;105.60;94.10;;;;;;;4.10;80.44;100168.52;109837;1291;22718;-78
2021/12/30 08:42:27;;;;;;;99.90;81.80;;;;;;;4.16;80.59;100175.55;109843;1291;21939;-89
2021/12/30 08:45:19;;;;;;;96.80;78.40;;;;;;;4.24;80.64;100172.91;108889;1298;21986;-84
2021/12/30 08:48:44;;;;;;;;;;;;;;;;;;;;;
2021/12/30 08:51:36;;;;;;;92.00;76.90;;;;;;;4.39;80.71;100160.96;109469;1298;21990;-87
2021/12/30 08:55:19;;;;;;;;;;;;;;;;;;;;;
2021/12/30 08:58:21;;;;;;;;;;;;;;;;;;;;;
2021/12/30 09:01:40;;;;;;;;;;;;;;;;;;;;;
2021/12/30 09:04:34;;;;;;;;;;;;;;;;;;;;;
2021/12/30 09:07:44;;;;;;;99.80;78.80;;;;;;;4.64;80.42;100158.07;109965;1288;21917;-85
2021/12/30 09:10:19;;;;;;;86.20;72.10;;;;;;;4.71;80.56;100161.69;109743;1288;21920;-86
2021/12/30 09:12:59;;;;;;;97.40;73.20;;;;;;;4.77;80.51;100168.52;109877;1288;21846;-85
2021/12/30 09:15:32;;;;;;;85.70;73.50;;;;;;;4.84;80.27;100175.01;109456;1294;22443;-81
2021/12/30 09:18:06;;;;;;;89.20;76.10;;;;;;;4.86;80.22;100170.28;109582;1294;21972;-82
2021/12/30 09:20:41;;;;;;;89.50;76.40;;;;;;;4.92;80.41;100179.16;109557;1294;21842;-83
2021/12/30 09:23:19;;;;;;;;;;;;;;;4.99;80.35;100169.37;108664;1300;22379;-81
2021/12/30 09:25:56;;;;;;;68.50;58.80;;;;;;;4.88;80.19;100166.70;108192;1303;21914;-82
2021/12/30 09:28:26;;;;;;;74.50;64.80;;;;;;;4.85;80.14;100167.77;107808;1307;21941;-80
2021/12/30 09:31:00;;;;;;;67.40;59.50;;;;;;;4.86;80.20;100170.47;107776;1307;22429;-82
2021/12/30 09:33:30;;;;;;;68.20;58.80;;;;;;;4.89;80.35;100169.73;107643;1309;22448;-82
2021/12/30 09:36:02;;;;;;;74.70;65.00;;;;;;;4.92;80.43;100165.80;107781;1308;21956;-81
2021/12/30 09:38:31;;;;;;;75.60;66.30;;;;;;;4.98;80.38;100159.63;107641;1309;21870;-84
2021/12/30 09:41:01;;;;;;;76.70;66.80;;;;;;;5.03;80.42;100162.20;107746;1303;21912;-80
2021/12/30 09:43:40;;;;;;;86.10;77.10;;;;;;;5.09;80.49;100159.58;108414;1300;21915;-83
2021/12/30 09:46:11;;;;;;;73.00;65.00;;;;;;;5.15;80.38;100163.50;108627;1301;21883;-85
2021/12/30 09:48:43;;;;;;;99.30;88.60;;;;;;;5.20;80.39;100162.41;108630;1300;21788;-85
2021/12/30 09:51:24;;;;;;;83.30;74.10;;;;;;;5.25;80.44;100163.92;108794;1301;21991;-81
2021/12/30 09:53:53;;;;;;;78.90;70.40;;;;;;;5.30;80.57;100161.35;108470;1303;21879;-77
2021/12/30 09:56:29;;;;;;;74.10;66.80;;;;;;;5.36;80.47;100153.96;108379;1303;21948;-83
2021/12/30 09:58:59;;;;;;;72.10;64.40;;;;;;;5.42;80.44;100155.68;108230;1303;21899;-77
2021/12/30 10:01:28;;;;;;;76.50;68.70;;;;;;;5.50;80.48;100148.70;107992;1303;21847;-78
2021/12/30 10:04:03;;;;;;;79.00;70.60;;;;;;;5.56;80.51;100144.79;108381;1300;21945;-78
2021/12/30 10:06:34;;;;;;;84.70;75.80;;;;;;;5.62;80.56;100140.57;107946;1306;21945;-78
2021/12/30 10:09:11;;;;;;;74.90;67.20;;;;;;;5.71;80.67;100142.90;107866;1308;21919;-78
2021/12/30 10:12:00;;;;;;;69.10;62.00;;;;;;;5.79;80.52;100142.02;107850;1303;22310;-80
2021/12/30 10:14:37;;;;;;;72.30;64.70;;;;;;;5.83;80.54;100140.60;107694;1311;21851;-79
2021/12/30 10:17:26;;;;;;;70.80;63.70;;;;;;;5.88;80.65;100133.61;107519;1305;21852;-79
2021/12/30 10:20:15;;;;;;;83.50;75.30;;;;;;;5.97;80.64;100128.48;108215;1306;22006;-79
2021/12/30 10:22:49;;;;;;;68.40;61.50;;;;;;;6.02;80.38;100125.73;107881;1304;22080;-78
2021/12/30 10:25:32;;;;;;;89.40;80.40;;;;;;;6.04;80.22;100132.02;108176;1301;21957;-78
2021/12/30 10:28:25;;;;;;;81.60;73.10;;;;;;;6.05;80.28;100121.42;109357;1294;21904;-79
2021/12/30 10:31:11;;;;;;;45.50;40.80;;;;;;;6.11;80.49;100136.05;108576;1298;22391;-79
2021/12/30 10:33:55;;;;;;;47.00;42.30;;;;;;;6.19;80.60;100138.66;108679;1301;21898;-79
2021/12/30 10:36:47;;;;;;;46.00;41.50;;;;;;;6.24;80.39;100135.36;108653;1301;22076;-79
2021/12/30 10:39:17;;;;;;;45.10;40.30;;;;;;;6.30;80.36;100141.93;108158;1301;21896;-79
2021/12/30 10:41:53;;;;;;;40.40;36.30;;;;;;;6.35;80.42;100139.86;107960;1305;21999;-79
2021/12/30 10:44:22;;;;;;;38.20;34.20;;;;;;;6.41;80.27;100131.66;107958;1306;21908;-79
2021/12/30 10:46:53;;;;;;;35.10;31.40;;;;;;;6.46;80.34;100134.89;107582;1310;22325;-79
2021/12/30 10:49:27;;;;;;;35.70;31.70;;;;;;;6.50;80.30;100140.23;107931;1301;21925;-79
2021/12/30 10:51:58;;;;;;;43.10;36.10;;;;;;;6.55;80.15;100135.06;107952;1303;22065;-79
2021/12/30 10:54:34;;;;;;;40.90;36.60;;;;;;;6.56;80.04;100137.52;107998;1303;21885;-79
2021/12/30 10:57:12;;;;;;;40.70;36.40;;;;;;;6.57;79.97;100132.77;108285;1300;21878;-83
2021/12/30 10:59:46;;;;;;;37.50;33.80;;;;;;;6.59;79.84;100132.40;108857;1294;21891;-78
2021/12/30 11:02:22;;;;;;;40.40;36.00;;;;;;;6.61;79.91;100141.16;109605;1294;22603;-78
2021/12/30 11:05:04;;;;;;;43.00;38.10;;;;;;;6.62;79.91;100139.61;109404;1291;21972;-78
2021/12/30 11:07:51;;;;;;;48.10;42.60;;;;;;;6.63;79.65;100147.35;109804;1288;21959;-79
2021/12/30 11:10:36;;;;;;;50.90;43.10;;;;;;;6.61;79.79;100136.72;109795;1288;21928;-78
2021/12/30 11:13:11;;;;;;;53.40;45.20;;;;;;;6.61;79.55;100137.63;109195;1294;22715;-78
2021/12/30 11:15:41;;;;;;;59.70;51.30;;;;;;;6.63;79.72;100134.85;109837;1288;22006;-79
2021/12/30 11:18:19;;;;;;;52.70;46.20;;;;;;;6.64;79.72;100136.31;109922;1284;21968;-77
2021/12/30 11:20:49;;;;;;;51.30;44.20;;;;;;;6.65;79.58;100138.98;109809;1288;21981;-78
2021/12/30 11:23:18;;;;;;;58.20;47.90;;;;;;;6.64;79.55;100144.67;109772;1289;21904;-78
2021/12/30 11:25:48;;;;;;;56.50;46.40;;;;;;;6.64;79.52;100150.81;109884;1288;22416;-77
2021/12/30 11:28:19;;;;;;;54.20;44.90;;;;;;;6.62;79.44;100149.09;109708;1292;21938;-77
2021/12/30 11:30:50;;;;;;;53.40;43.80;;;;;;;6.60;79.50;100148.23;108720;1298;21953;-77
2021/12/30 11:33:24;;;;;;;55.00;46.40;;;;;;;6.60;79.50;100147.17;108443;1300;22077;-78
2021/12/30 11:35:54;;;;;;;58.00;49.10;;;;;;;6.62;79.59;100144.17;108674;1298;21949;-78
2021/12/30 11:38:23;;;;;;;57.80;49.40;;;;;;;6.62;79.44;100146.83;108669;1300;22000;-78
2021/12/30 11:40:55;;;;;;;53.70;45.10;;;;;;;6.61;79.34;100140.65;108700;1299;22331;-79
2021/12/30 11:43:41;;;;;;;61.80;47.70;;;;;;;6.58;79.30;100145.27;108390;1303;21904;-78
2021/12/30 11:46:40;;;;;;;61.60;48.90;;;;;;;6.52;79.37;100153.85;108401;1301;21908;-78
2021/12/30 11:49:14;;;;;;;66.20;49.70;;;;;;;6.47;79.41;100161.35;108382;1301;21909;-78
2021/12/30 11:51:48;;;;;;;56.60;47.70;;;;;;;6.46;79.51;100162.30;108847;1297;21936;-78
2021/12/30 11:54:40;;;;;;;47.30;41.10;;;;;;;6.47;79.74;100165.36;109028;1298;21883;-78
2021/12/30 11:57:32;;;;;;;61.70;50.70;;;;;;;6.46;79.58;100165.17;109571;1298;21865;-78
2021/12/30 12:00:37;;;;;;;74.30;56.70;;;;;;;6.44;79.73;100168.83;109021;1298;21930;-78
2021/12/30 12:03:31;;;;;;;56.80;47.00;;;;;;;6.42;79.77;100169.91;109080;1295;21936;-78
2021/12/30 12:06:24;;;;;;;58.80;46.10;;;;;;;6.41;79.77;100175.77;108983;1298;21887;-78
2021/12/30 12:09:22;;;;;;;59.30;48.20;;;;;;;6.42;80.08;100182.79;109428;1297;22420;-77
2021/12/30 12:12:02;;;;;;;58.20;47.30;;;;;;;6.49;80.17;100188.49;109635;1294;21989;-78
2021/12/30 12:14:56;;;;;;;60.00;47.70;;;;;;;6.51;80.25;100189.65;109479;1294;21936;-78
2021/12/30 12:17:43;;;;;;;59.10;48.30;;;;;;;6.53;80.15;100185.64;109536;1294;22465;-78
2021/12/30 12:20:30;;;;;;;63.40;50.40;;;;;;;6.56;80.23;100196.01;108553;1299;22351;-78
2021/12/30 12:23:35;;;;;;;61.10;49.40;;;;;;;6.57;80.31;100183.98;108831;1299;21907;-78
2021/12/30 12:26:14;;;;;;;75.90;56.30;;;;;;;6.63;80.51;100188.23;108665;1301;21966;-79
2021/12/30 12:28:48;;;;;;;74.30;62.60;;;;;;;6.68;80.65;100184.23;108726;1300;21987;-78
2021/12/30 12:31:18;;;;;;;75.70;64.10;;;;;;;6.74;80.59;100177.11;107871;1305;21908;-78
2021/12/30 12:33:57;;;;;;;82.40;67.40;;;;;;;6.77;80.62;100177.54;108520;1300;21993;-78
2021/12/30 12:36:34;;;;;;;73.70;62.00;;;;;;;6.82;80.60;100184.05;108137;1302;21985;-78
2021/12/30 12:39:04;;;;;;;69.30;54.40;;;;;;;6.87;80.62;100186.06;108783;1298;22081;-78
2021/12/30 12:41:36;;;;;;;101.70;76.70;;;;;;;6.91;80.67;100183.92;109013;1298;21979;-79
2021/12/30 12:44:21;;;;;;;100.70;77.80;;;;;;;6.95;80.45;100183.73;108686;1300;21951;-78
2021/12/30 12:46:53;;;;;;;91.80;70.90;;;;;;;6.97;80.53;100186.65;108536;1301;22025;-78
2021/12/30 12:50:06;;;;;;;91.30;72.20;;;;;;;7.02;80.58;100181.45;108452;1300;21956;-78
2021/12/30 12:52:47;;;;;;;83.00;62.40;;;;;;;7.01;80.26;100193.05;107590;1308;21943;-78
2021/12/30 12:55:21;;;;;;;86.40;63.70;;;;;;;7.01;80.18;100181.20;107291;1312;22388;-79
2021/12/30 12:57:50;;;;;;;76.30;62.00;;;;;;;7.01;80.23;100178.73;107484;1310;22032;-78
2021/12/30 13:00:20;;;;;;;78.60;61.90;;;;;;;7.05;80.26;100175.05;107706;1310;22301;-78
2021/12/30 13:02:53;;;;;;;83.90;68.90;;;;;;;7.09;80.38;100176.88;108033;1305;21943;-78
2021/12/30 13:05:28;;;;;;;92.50;73.60;;;;;;;7.15;80.40;100171.63;108133;1303;22425;-79
2021/12/30 13:07:59;;;;;;;91.60;71.50;;;;;;;7.18;80.21;100168.88;108093;1305;22267;-78
2021/12/30 13:10:29;;;;;;;87.20;67.50;;;;;;;7.19;80.37;100177.67;108315;1299;22018;-78
2021/12/30 13:13:02;;;;;;;80.50;65.70;;;;;;;7.22;80.53;100182.30;108877;1292;22346;-78
2021/12/30 13:15:39;;;;;;;74.00;61.00;;;;;;;7.30;80.47;100187.08;109515;1290;22422;-78
2021/12/30 13:18:15;;;;;;;78.60;61.80;;;;;;;7.35;80.41;100175.91;109258;1292;21933;-79
2021/12/30 13:20:49;;;;;;;70.20;55.50;;;;;;;7.40;80.39;100177.59;109140;1295;22322;-79
2021/12/30 13:23:30;;;;;;;78.40;61.00;;;;;;;7.46;80.43;100171.52;108476;1304;22364;-79
2021/12/30 13:26:07;;;;;;;80.30;67.50;;;;;;;7.50;80.23;100161.25;108247;1303;21905;-78
2021/12/30 13:28:52;;;;;;;97.90;84.20;;;;;;;7.48;79.90;100167.23;108151;1304;21963;-79
2021/12/30 13:31:24;;;;;;;94.80;79.10;;;;;;;7.47;79.79;100174.40;107804;1306;21918;-78
2021/12/30 13:34:00;;;;;;;104.50;87.60;;;;;;;7.50;80.00;100181.27;108138;1305;21858;-78
2021/12/30 13:36:38;;;;;;;95.80;78.20;;;;;;;7.50;79.85;100194.27;107440;1312;22381;-78
2021/12/30 13:39:14;;;;;;;80.50;64.10;;;;;;;7.54;80.02;100205.13;107787;1304;21996;-79
2021/12/30 13:41:55;;;;;;;78.50;66.30;;;;;;;7.58;80.06;100209.73;107640;1308;22382;-79
2021/12/30 13:44:36;;;;;;;71.00;60.00;;;;;;;7.62;80.05;100207.64;107423;1312;22025;-78
2021/12/30 13:47:22;;;;;;;75.30;63.60;;;;;;;7.63;79.88;100202.29;107665;1308;22805;-79
2021/12/30 13:49:57;;;;;;;71.00;58.80;;;;;;;7.62;79.71;100199.42;107741;1309;21854;-79
2021/12/30 13:52:32;;;;;;;69.00;58.80;;;;;;;7.60;79.79;100187.45;108037;1306;22016;-79
2021/12/30 13:55:23;;;;;;;81.30;70.50;;;;;;;7.62;79.85;100189.19;107956;1304;22015;-79
2021/12/30 13:58:11;;;;;;;82.10;68.20;;;;;;;7.64;79.75;100186.06;107757;1307;22015;-78
2021/12/30 14:00:50;;;;;;;78.30;63.90;;;;;;;7.63;79.61;100180.17;107804;1304;22226;-78
2021/12/30 14:03:29;;;;;;;70.80;61.40;;;;;;;7.62;79.61;100173.30;108191;1301;21822;-79
2021/12/30 14:06:12;;;;;;;101.60;84.40;;;;;;;7.64;79.83;100177.30;108540;1300;22378;-79
2021/12/30 14:08:59;;;;;;;;;;;;;;;7.65;79.78;100168.35;108874;1295;21979;-79
2021/12/30 14:11:49;;;;;;;81.80;63.80;;;;;;;7.52;79.93;100169.38;109259;1297;21901;-78